sensor_id;sensor_type;location;lat;lon;timestamp;temperature;humidity
35381;DHT22;21486;51.916;8.378;2023-12-28T00:02:09;9.10;99.90
35381;DHT22;21486;51.916;8.378;2023-12-28T00:04:34;9.10;99.90
35381;DHT22;21486;51.916;8.378;2023-12-28T00:07:02;9.10;99.90
35381;DHT22;21486;51.916;8.378;2023-12-28T00:09:27;9.10;99.90
35381;DHT22;21486;51.916;8.378;2023-12-28T00:11:53;9.10;99.90
35381;DHT22;21486;51.916;8.378;2023-12-28T00:14:18;9.00;99.90
35381;DHT22;21486;51.916;8.378;2023-12-28T00:16:44;9.10;99.90
35381;DHT22;21486;51.916;8.378;2023-12-28T00:19:09;9.10;99.90
35381;DHT22;21486;51.916;8.378;2023-12-28T00:21:35;9.10;99.90
35381;DHT22;21486;51.916;8.378;2023-12-28T00:24:00;9.20;99.90
35381;DHT22;21486;51.916;8.378;2023-12-28T00:26:25;9.10;99.90
35381;DHT22;21486;51.916;8.378;2023-12-28T00:28:51;9.10;99.90
35381;DHT22;21486;51.916;8.378;2023-12-28T00:31:16;9.10;99.90
35381;DHT22;21486;51.916;8.378;2023-12-28T00:33:42;9.00;99.90
35381;DHT22;21486;51.916;8.378;2023-12-28T00:36:07;8.90;99.90
35381;DHT22;21486;51.916;8.378;2023-12-28T00:38:33;8.90;99.90
35381;DHT22;21486;51.916;8.378;2023-12-28T00:40:58;8.80;99.90
35381;DHT22;21486;51.916;8.378;2023-12-28T00:43:23;8.80;99.90
35381;DHT22;21486;51.916;8.378;2023-12-28T00:45:49;8.80;99.90
35381;DHT22;21486;51.916;8.378;2023-12-28T00:48:14;8.90;99.90
35381;DHT22;21486;51.916;8.378;2023-12-28T00:50:40;8.90;99.90
35381;DHT22;21486;51.916;8.378;2023-12-28T00:53:05;8.90;99.90
35381;DHT22;21486;51.916;8.378;2023-12-28T00:55:31;9.00;99.90
35381;DHT22;21486;51.916;8.378;2023-12-28T00:57:56;9.00;99.90
35381;DHT22;21486;51.916;8.378;2023-12-28T01:00:22;9.00;99.90
35381;DHT22;21486;51.916;8.378;2023-12-28T01:02:47;9.00;99.90
35381;DHT22;21486;51.916;8.378;2023-12-28T01:05:14;9.10;99.90
35381;DHT22;21486;51.916;8.378;2023-12-28T01:07:39;9.10;99.90
35381;DHT22;21486;51.916;8.378;2023-12-28T01:10:05;9.00;99.90
35381;DHT22;21486;51.916;8.378;2023-12-28T01:12:30;9.00;99.90
35381;DHT22;21486;51.916;8.378;2023-12-28T01:14:56;9.00;99.90
35381;DHT22;21486;51.916;8.378;2023-12-28T01:17:21;9.10;99.90
35381;DHT22;21486;51.916;8.378;2023-12-28T01:19:47;9.00;99.90
35381;DHT22;21486;51.916;8.378;2023-12-28T01:22:12;9.00;99.90
35381;DHT22;21486;51.916;8.378;2023-12-28T01:24:38;9.10;99.90
35381;DHT22;21486;51.916;8.378;2023-12-28T01:27:03;9.10;99.90
35381;DHT22;21486;51.916;8.378;2023-12-28T01:29:28;9.10;99.90
35381;DHT22;21486;51.916;8.378;2023-12-28T01:33:02;9.10;99.90
35381;DHT22;21486;51.916;8.378;2023-12-28T01:35:27;9.20;99.90
35381;DHT22;21486;51.916;8.378;2023-12-28T01:37:53;9.20;99.90
35381;DHT22;21486;51.916;8.378;2023-12-28T01:40:19;9.20;99.90
35381;DHT22;21486;51.916;8.378;2023-12-28T01:42:45;9.20;99.90
35381;DHT22;21486;51.916;8.378;2023-12-28T01:45:10;9.20;99.90
35381;DHT22;21486;51.916;8.378;2023-12-28T01:47:36;9.20;99.90
35381;DHT22;21486;51.916;8.378;2023-12-28T01:50:02;9.10;99.90
35381;DHT22;21486;51.916;8.378;2023-12-28T01:52:28;9.10;99.90
35381;DHT22;21486;51.916;8.378;2023-12-28T01:54:54;9.10;99.90
35381;DHT22;21486;51.916;8.378;2023-12-28T01:57:20;9.10;99.90
35381;DHT22;21486;51.916;8.378;2023-12-28T01:59:46;9.20;99.90
35381;DHT22;21486;51.916;8.378;2023-12-28T02:02:12;9.20;99.90
35381;DHT22;21486;51.916;8.378;2023-12-28T02:04:38;9.20;99.90
35381;DHT22;21486;51.916;8.378;2023-12-28T02:07:05;9.20;99.90
35381;DHT22;21486;51.916;8.378;2023-12-28T02:09:30;9.20;99.90
35381;DHT22;21486;51.916;8.378;2023-12-28T02:11:56;9.20;99.90
35381;DHT22;21486;51.916;8.378;2023-12-28T02:14:22;9.10;99.90
35381;DHT22;21486;51.916;8.378;2023-12-28T02:17:03;9.20;99.90
35381;DHT22;21486;51.916;8.378;2023-12-28T02:19:38;9.10;99.90
35381;DHT22;21486;51.916;8.378;2023-12-28T02:22:07;9.20;99.90
35381;DHT22;21486;51.916;8.378;2023-12-28T02:24:32;9.10;99.90
35381;DHT22;21486;51.916;8.378;2023-12-28T02:26:58;9.20;99.90
35381;DHT22;21486;51.916;8.378;2023-12-28T02:29:23;9.10;99.90
35381;DHT22;21486;51.916;8.378;2023-12-28T02:31:59;9.00;99.90
35381;DHT22;21486;51.916;8.378;2023-12-28T02:34:29;9.00;99.90
35381;DHT22;21486;51.916;8.378;2023-12-28T02:36:59;9.00;99.90
35381;DHT22;21486;51.916;8.378;2023-12-28T02:39:26;9.00;99.90
35381;DHT22;21486;51.916;8.378;2023-12-28T02:41:53;9.00;99.90
35381;DHT22;21486;51.916;8.378;2023-12-28T02:44:21;9.00;99.90
35381;DHT22;21486;51.916;8.378;2023-12-28T02:46:46;9.10;99.90
35381;DHT22;21486;51.916;8.378;2023-12-28T02:49:12;9.20;99.90
35381;DHT22;21486;51.916;8.378;2023-12-28T02:51:37;9.20;99.90
35381;DHT22;21486;51.916;8.378;2023-12-28T02:54:03;9.20;99.90
35381;DHT22;21486;51.916;8.378;2023-12-28T02:56:28;9.20;99.90
35381;DHT22;21486;51.916;8.378;2023-12-28T02:58:55;9.20;99.90
35381;DHT22;21486;51.916;8.378;2023-12-28T03:01:20;9.20;99.90
35381;DHT22;21486;51.916;8.378;2023-12-28T03:03:46;9.10;99.90
35381;DHT22;21486;51.916;8.378;2023-12-28T03:06:11;9.20;99.90
35381;DHT22;21486;51.916;8.378;2023-12-28T03:08:37;9.20;99.90
35381;DHT22;21486;51.916;8.378;2023-12-28T03:11:02;9.20;99.90
35381;DHT22;21486;51.916;8.378;2023-12-28T03:13:28;9.30;99.90
35381;DHT22;21486;51.916;8.378;2023-12-28T03:15:53;9.30;99.90
35381;DHT22;21486;51.916;8.378;2023-12-28T03:18:19;9.30;99.90
35381;DHT22;21486;51.916;8.378;2023-12-28T03:20:44;9.30;99.90
35381;DHT22;21486;51.916;8.378;2023-12-28T03:23:11;9.30;99.90
35381;DHT22;21486;51.916;8.378;2023-12-28T03:25:37;9.20;99.90
35381;DHT22;21486;51.916;8.378;2023-12-28T03:28:02;9.30;99.90
35381;DHT22;21486;51.916;8.378;2023-12-28T03:30:28;9.30;99.90
35381;DHT22;21486;51.916;8.378;2023-12-28T03:32:53;9.30;99.90
35381;DHT22;21486;51.916;8.378;2023-12-28T03:35:19;9.30;99.90
35381;DHT22;21486;51.916;8.378;2023-12-28T03:37:45;9.40;99.90
35381;DHT22;21486;51.916;8.378;2023-12-28T03:40:10;9.40;99.90
35381;DHT22;21486;51.916;8.378;2023-12-28T03:42:36;9.40;99.90
35381;DHT22;21486;51.916;8.378;2023-12-28T03:45:02;9.40;99.90
35381;DHT22;21486;51.916;8.378;2023-12-28T03:47:27;9.40;99.90
35381;DHT22;21486;51.916;8.378;2023-12-28T03:49:53;9.40;99.90
35381;DHT22;21486;51.916;8.378;2023-12-28T03:52:22;9.40;99.90
35381;DHT22;21486;51.916;8.378;2023-12-28T03:54:48;9.40;99.90
35381;DHT22;21486;51.916;8.378;2023-12-28T03:57:14;9.40;99.90
35381;DHT22;21486;51.916;8.378;2023-12-28T03:59:40;9.40;99.90
35381;DHT22;21486;51.916;8.378;2023-12-28T04:02:05;9.50;99.90
35381;DHT22;21486;51.916;8.378;2023-12-28T04:04:31;9.50;99.90
35381;DHT22;21486;51.916;8.378;2023-12-28T04:06:56;9.40;99.90
35381;DHT22;21486;51.916;8.378;2023-12-28T04:09:22;9.30;99.90
35381;DHT22;21486;51.916;8.378;2023-12-28T04:11:47;9.30;99.90
35381;DHT22;21486;51.916;8.378;2023-12-28T04:14:13;9.20;99.90
35381;DHT22;21486;51.916;8.378;2023-12-28T04:16:39;9.30;99.90
35381;DHT22;21486;51.916;8.378;2023-12-28T04:19:04;9.30;99.90
35381;DHT22;21486;51.916;8.378;2023-12-28T04:21:30;9.30;99.90
35381;DHT22;21486;51.916;8.378;2023-12-28T04:23:55;9.30;99.90
35381;DHT22;21486;51.916;8.378;2023-12-28T04:26:21;9.40;99.90
35381;DHT22;21486;51.916;8.378;2023-12-28T04:28:46;9.30;99.90
35381;DHT22;21486;51.916;8.378;2023-12-28T04:31:12;9.40;99.90
35381;DHT22;21486;51.916;8.378;2023-12-28T04:33:38;9.40;99.90
35381;DHT22;21486;51.916;8.378;2023-12-28T04:36:03;9.30;99.90
35381;DHT22;21486;51.916;8.378;2023-12-28T04:38:29;9.40;99.90
35381;DHT22;21486;51.916;8.378;2023-12-28T04:40:55;9.40;99.90
35381;DHT22;21486;51.916;8.378;2023-12-28T04:43:21;9.30;99.90
35381;DHT22;21486;51.916;8.378;2023-12-28T04:45:49;9.30;99.90
35381;DHT22;21486;51.916;8.378;2023-12-28T04:48:15;9.30;99.90
35381;DHT22;21486;51.916;8.378;2023-12-28T04:50:40;9.20;99.90
35381;DHT22;21486;51.916;8.378;2023-12-28T04:53:06;9.10;99.90
35381;DHT22;21486;51.916;8.378;2023-12-28T04:55:31;9.20;99.90
35381;DHT22;21486;51.916;8.378;2023-12-28T04:57:57;9.10;99.90
35381;DHT22;21486;51.916;8.378;2023-12-28T05:00:22;9.10;99.90
35381;DHT22;21486;51.916;8.378;2023-12-28T05:02:48;9.10;99.90
35381;DHT22;21486;51.916;8.378;2023-12-28T05:05:13;9.10;99.90
35381;DHT22;21486;51.916;8.378;2023-12-28T05:07:39;9.10;99.90
35381;DHT22;21486;51.916;8.378;2023-12-28T05:10:05;9.10;99.90
35381;DHT22;21486;51.916;8.378;2023-12-28T05:12:31;9.10;99.90
35381;DHT22;21486;51.916;8.378;2023-12-28T05:14:56;9.20;99.90
35381;DHT22;21486;51.916;8.378;2023-12-28T05:17:22;9.20;99.90
35381;DHT22;21486;51.916;8.378;2023-12-28T05:19:47;9.20;99.90
35381;DHT22;21486;51.916;8.378;2023-12-28T05:22:13;9.20;99.90
35381;DHT22;21486;51.916;8.378;2023-12-28T05:24:38;9.10;99.90
35381;DHT22;21486;51.916;8.378;2023-12-28T05:27:04;9.10;99.90
35381;DHT22;21486;51.916;8.378;2023-12-28T05:29:29;9.10;99.90
35381;DHT22;21486;51.916;8.378;2023-12-28T05:31:55;9.20;99.90
35381;DHT22;21486;51.916;8.378;2023-12-28T05:34:21;9.30;99.90
35381;DHT22;21486;51.916;8.378;2023-12-28T05:36:46;9.20;99.90
35381;DHT22;21486;51.916;8.378;2023-12-28T05:39:12;9.30;99.90
35381;DHT22;21486;51.916;8.378;2023-12-28T05:41:40;9.30;99.90
35381;DHT22;21486;51.916;8.378;2023-12-28T05:44:06;9.40;99.90
35381;DHT22;21486;51.916;8.378;2023-12-28T05:46:31;9.30;99.90
35381;DHT22;21486;51.916;8.378;2023-12-28T05:48:57;9.40;99.90
35381;DHT22;21486;51.916;8.378;2023-12-28T05:51:23;9.30;99.90
35381;DHT22;21486;51.916;8.378;2023-12-28T05:53:49;9.40;99.90
35381;DHT22;21486;51.916;8.378;2023-12-28T05:56:14;9.30;99.90
35381;DHT22;21486;51.916;8.378;2023-12-28T05:58:40;9.30;99.90
35381;DHT22;21486;51.916;8.378;2023-12-28T06:01:05;9.30;99.90
35381;DHT22;21486;51.916;8.378;2023-12-28T06:03:31;9.30;99.90
35381;DHT22;21486;51.916;8.378;2023-12-28T06:05:57;9.20;99.90
35381;DHT22;21486;51.916;8.378;2023-12-28T06:08:22;9.20;99.90
35381;DHT22;21486;51.916;8.378;2023-12-28T06:10:48;9.20;99.90
35381;DHT22;21486;51.916;8.378;2023-12-28T06:13:13;9.20;99.90
35381;DHT22;21486;51.916;8.378;2023-12-28T06:15:40;9.20;99.90
35381;DHT22;21486;51.916;8.378;2023-12-28T06:18:05;9.20;99.90
35381;DHT22;21486;51.916;8.378;2023-12-28T06:20:31;9.20;99.90
35381;DHT22;21486;51.916;8.378;2023-12-28T06:22:56;9.30;99.90
35381;DHT22;21486;51.916;8.378;2023-12-28T06:25:22;9.30;99.90
35381;DHT22;21486;51.916;8.378;2023-12-28T06:27:47;9.40;99.90
35381;DHT22;21486;51.916;8.378;2023-12-28T06:30:13;9.40;99.90
35381;DHT22;21486;51.916;8.378;2023-12-28T06:32:39;9.40;99.90
35381;DHT22;21486;51.916;8.378;2023-12-28T06:35:05;9.50;99.90
35381;DHT22;21486;51.916;8.378;2023-12-28T06:37:30;9.40;99.90
35381;DHT22;21486;51.916;8.378;2023-12-28T06:39:56;9.50;99.90
35381;DHT22;21486;51.916;8.378;2023-12-28T06:42:21;9.60;99.90
35381;DHT22;21486;51.916;8.378;2023-12-28T06:44:47;9.50;99.90
35381;DHT22;21486;51.916;8.378;2023-12-28T06:47:12;9.50;99.90
35381;DHT22;21486;51.916;8.378;2023-12-28T06:49:38;9.60;99.90
35381;DHT22;21486;51.916;8.378;2023-12-28T06:52:04;9.50;99.90
35381;DHT22;21486;51.916;8.378;2023-12-28T06:54:29;9.70;99.90
35381;DHT22;21486;51.916;8.378;2023-12-28T06:56:55;9.50;99.90
35381;DHT22;21486;51.916;8.378;2023-12-28T06:59:20;9.60;99.90
35381;DHT22;21486;51.916;8.378;2023-12-28T07:01:45;9.60;99.90
35381;DHT22;21486;51.916;8.378;2023-12-28T07:04:13;9.50;99.90
35381;DHT22;21486;51.916;8.378;2023-12-28T07:06:39;9.60;99.90
35381;DHT22;21486;51.916;8.378;2023-12-28T07:09:04;9.60;99.90
35381;DHT22;21486;51.916;8.378;2023-12-28T07:11:30;9.70;99.90
35381;DHT22;21486;51.916;8.378;2023-12-28T07:13:55;9.70;99.90
35381;DHT22;21486;51.916;8.378;2023-12-28T07:16:21;9.70;99.90
35381;DHT22;21486;51.916;8.378;2023-12-28T07:18:46;9.70;99.90
35381;DHT22;21486;51.916;8.378;2023-12-28T07:21:12;9.70;99.90
35381;DHT22;21486;51.916;8.378;2023-12-28T07:23:37;9.70;99.90
35381;DHT22;21486;51.916;8.378;2023-12-28T07:26:04;9.80;99.90
35381;DHT22;21486;51.916;8.378;2023-12-28T07:28:30;9.70;99.90
35381;DHT22;21486;51.916;8.378;2023-12-28T07:30:56;9.60;99.90
35381;DHT22;21486;51.916;8.378;2023-12-28T07:33:22;9.70;99.90
35381;DHT22;21486;51.916;8.378;2023-12-28T07:35:47;9.70;99.90
35381;DHT22;21486;51.916;8.378;2023-12-28T07:38:13;9.60;99.90
35381;DHT22;21486;51.916;8.378;2023-12-28T07:40:39;9.60;99.90
35381;DHT22;21486;51.916;8.378;2023-12-28T07:43:05;9.70;99.90
35381;DHT22;21486;51.916;8.378;2023-12-28T07:45:30;9.70;99.90
35381;DHT22;21486;51.916;8.378;2023-12-28T07:47:59;9.70;99.90
35381;DHT22;21486;51.916;8.378;2023-12-28T07:50:25;9.70;99.90
35381;DHT22;21486;51.916;8.378;2023-12-28T07:52:50;9.70;99.90
35381;DHT22;21486;51.916;8.378;2023-12-28T07:55:16;9.70;99.90
35381;DHT22;21486;51.916;8.378;2023-12-28T07:57:42;9.80;99.90
35381;DHT22;21486;51.916;8.378;2023-12-28T08:00:08;9.70;99.90
35381;DHT22;21486;51.916;8.378;2023-12-28T08:02:34;9.70;99.90
35381;DHT22;21486;51.916;8.378;2023-12-28T08:05:00;9.70;99.90
35381;DHT22;21486;51.916;8.378;2023-12-28T08:07:25;9.70;99.90
35381;DHT22;21486;51.916;8.378;2023-12-28T08:09:51;9.70;99.90
35381;DHT22;21486;51.916;8.378;2023-12-28T08:12:16;9.70;99.90
35381;DHT22;21486;51.916;8.378;2023-12-28T08:14:43;9.60;99.90
35381;DHT22;21486;51.916;8.378;2023-12-28T08:17:08;9.70;99.90
35381;DHT22;21486;51.916;8.378;2023-12-28T08:19:34;9.70;99.90
35381;DHT22;21486;51.916;8.378;2023-12-28T08:21:59;9.70;99.90
35381;DHT22;21486;51.916;8.378;2023-12-28T08:24:25;9.80;99.90
35381;DHT22;21486;51.916;8.378;2023-12-28T08:26:50;9.70;99.90
35381;DHT22;21486;51.916;8.378;2023-12-28T08:29:16;9.60;99.90
35381;DHT22;21486;51.916;8.378;2023-12-28T08:31:43;9.60;99.90
35381;DHT22;21486;51.916;8.378;2023-12-28T08:34:08;9.80;99.90
35381;DHT22;21486;51.916;8.378;2023-12-28T08:36:34;9.70;99.90
35381;DHT22;21486;51.916;8.378;2023-12-28T08:38:59;9.70;99.90
35381;DHT22;21486;51.916;8.378;2023-12-28T08:41:25;9.60;99.90
35381;DHT22;21486;51.916;8.378;2023-12-28T08:43:52;9.60;99.90
35381;DHT22;21486;51.916;8.378;2023-12-28T08:46:19;9.60;99.90
35381;DHT22;21486;51.916;8.378;2023-12-28T08:48:45;9.60;99.90
35381;DHT22;21486;51.916;8.378;2023-12-28T08:51:11;9.60;99.90
35381;DHT22;21486;51.916;8.378;2023-12-28T08:53:36;9.70;99.90
35381;DHT22;21486;51.916;8.378;2023-12-28T08:56:12;9.70;99.90
35381;DHT22;21486;51.916;8.378;2023-12-28T08:58:37;9.70;99.90
35381;DHT22;21486;51.916;8.378;2023-12-28T09:01:03;9.70;99.90
35381;DHT22;21486;51.916;8.378;2023-12-28T09:03:28;9.80;99.90
35381;DHT22;21486;51.916;8.378;2023-12-28T09:05:54;9.80;99.90
35381;DHT22;21486;51.916;8.378;2023-12-28T09:08:19;9.80;99.90
35381;DHT22;21486;51.916;8.378;2023-12-28T09:10:45;9.90;99.90
35381;DHT22;21486;51.916;8.378;2023-12-28T09:13:15;9.80;99.90
35381;DHT22;21486;51.916;8.378;2023-12-28T09:15:41;9.90;99.90
35381;DHT22;21486;51.916;8.378;2023-12-28T09:18:06;9.90;99.90
35381;DHT22;21486;51.916;8.378;2023-12-28T09:20:32;9.90;99.90
35381;DHT22;21486;51.916;8.378;2023-12-28T09:22:57;10.00;99.90
35381;DHT22;21486;51.916;8.378;2023-12-28T09:25:23;10.20;99.90
35381;DHT22;21486;51.916;8.378;2023-12-28T09:27:49;10.50;99.90
35381;DHT22;21486;51.916;8.378;2023-12-28T09:30:15;10.90;99.90
35381;DHT22;21486;51.916;8.378;2023-12-28T09:32:40;11.10;99.90
35381;DHT22;21486;51.916;8.378;2023-12-28T09:35:06;11.00;99.90
35381;DHT22;21486;51.916;8.378;2023-12-28T09:37:31;10.90;99.90
35381;DHT22;21486;51.916;8.378;2023-12-28T09:39:57;10.90;99.90
35381;DHT22;21486;51.916;8.378;2023-12-28T09:42:28;10.80;99.90
35381;DHT22;21486;51.916;8.378;2023-12-28T09:44:54;10.80;99.90
35381;DHT22;21486;51.916;8.378;2023-12-28T09:47:20;10.80;99.90
35381;DHT22;21486;51.916;8.378;2023-12-28T09:49:45;10.80;99.90
35381;DHT22;21486;51.916;8.378;2023-12-28T09:52:12;10.70;99.90
35381;DHT22;21486;51.916;8.378;2023-12-28T09:54:37;10.50;99.90
35381;DHT22;21486;51.916;8.378;2023-12-28T09:57:03;10.50;99.90
35381;DHT22;21486;51.916;8.378;2023-12-28T09:59:30;10.50;99.90
35381;DHT22;21486;51.916;8.378;2023-12-28T10:01:58;10.50;99.90
35381;DHT22;21486;51.916;8.378;2023-12-28T10:04:26;10.70;99.90
35381;DHT22;21486;51.916;8.378;2023-12-28T10:06:53;10.90;99.90
35381;DHT22;21486;51.916;8.378;2023-12-28T10:09:19;11.10;99.90
35381;DHT22;21486;51.916;8.378;2023-12-28T10:11:45;11.20;99.90
35381;DHT22;21486;51.916;8.378;2023-12-28T10:14:11;11.30;99.90
35381;DHT22;21486;51.916;8.378;2023-12-28T10:16:42;11.50;99.90
35381;DHT22;21486;51.916;8.378;2023-12-28T10:19:08;11.60;99.90
35381;DHT22;21486;51.916;8.378;2023-12-28T10:21:33;11.30;99.90
35381;DHT22;21486;51.916;8.378;2023-12-28T10:23:59;11.50;99.90
35381;DHT22;21486;51.916;8.378;2023-12-28T10:26:25;11.60;99.90
35381;DHT22;21486;51.916;8.378;2023-12-28T10:28:56;11.50;99.90
35381;DHT22;21486;51.916;8.378;2023-12-28T10:31:21;11.40;99.90
35381;DHT22;21486;51.916;8.378;2023-12-28T10:33:48;11.50;99.90
35381;DHT22;21486;51.916;8.378;2023-12-28T10:36:15;11.30;99.90
35381;DHT22;21486;51.916;8.378;2023-12-28T10:38:43;11.30;99.90
35381;DHT22;21486;51.916;8.378;2023-12-28T10:41:11;11.10;99.90
35381;DHT22;21486;51.916;8.378;2023-12-28T10:44:02;11.00;99.90
35381;DHT22;21486;51.916;8.378;2023-12-28T10:46:31;10.90;99.90
35381;DHT22;21486;51.916;8.378;2023-12-28T10:49:05;10.80;99.90
35381;DHT22;21486;51.916;8.378;2023-12-28T10:51:34;10.80;99.90
35381;DHT22;21486;51.916;8.378;2023-12-28T10:54:09;10.80;99.90
35381;DHT22;21486;51.916;8.378;2023-12-28T10:56:51;10.90;99.90
35381;DHT22;21486;51.916;8.378;2023-12-28T10:59:39;11.00;99.90
35381;DHT22;21486;51.916;8.378;2023-12-28T11:02:07;11.10;99.90
35381;DHT22;21486;51.916;8.378;2023-12-28T11:04:40;11.10;99.90
35381;DHT22;21486;51.916;8.378;2023-12-28T11:07:09;11.10;99.90
35381;DHT22;21486;51.916;8.378;2023-12-28T11:09:35;11.10;99.90
35381;DHT22;21486;51.916;8.378;2023-12-28T11:12:04;11.10;99.90
35381;DHT22;21486;51.916;8.378;2023-12-28T11:14:34;11.10;99.90
35381;DHT22;21486;51.916;8.378;2023-12-28T11:16:59;11.10;99.90
35381;DHT22;21486;51.916;8.378;2023-12-28T11:19:27;11.10;99.90
35381;DHT22;21486;51.916;8.378;2023-12-28T11:21:53;11.10;99.90
35381;DHT22;21486;51.916;8.378;2023-12-28T11:24:22;11.10;99.90
35381;DHT22;21486;51.916;8.378;2023-12-28T11:26:52;11.10;99.90
35381;DHT22;21486;51.916;8.378;2023-12-28T11:29:20;11.00;99.90
35381;DHT22;21486;51.916;8.378;2023-12-28T11:31:51;11.10;99.90
35381;DHT22;21486;51.916;8.378;2023-12-28T11:34:16;11.20;99.90
35381;DHT22;21486;51.916;8.378;2023-12-28T11:36:49;11.20;99.90
35381;DHT22;21486;51.916;8.378;2023-12-28T11:39:42;11.20;99.90
35381;DHT22;21486;51.916;8.378;2023-12-28T11:42:09;11.30;99.90
35381;DHT22;21486;51.916;8.378;2023-12-28T11:44:42;11.30;99.90
35381;DHT22;21486;51.916;8.378;2023-12-28T11:47:16;11.40;99.90
35381;DHT22;21486;51.916;8.378;2023-12-28T11:49:42;11.30;99.90
35381;DHT22;21486;51.916;8.378;2023-12-28T11:52:22;11.40;99.90
35381;DHT22;21486;51.916;8.378;2023-12-28T11:54:49;11.40;99.90
35381;DHT22;21486;51.916;8.378;2023-12-28T11:57:16;11.40;99.90
35381;DHT22;21486;51.916;8.378;2023-12-28T11:59:41;11.50;99.90
35381;DHT22;21486;51.916;8.378;2023-12-28T12:02:07;11.40;99.90
35381;DHT22;21486;51.916;8.378;2023-12-28T12:04:34;11.40;99.90
35381;DHT22;21486;51.916;8.378;2023-12-28T12:07:03;11.40;99.90
35381;DHT22;21486;51.916;8.378;2023-12-28T12:09:29;11.50;99.90
35381;DHT22;21486;51.916;8.378;2023-12-28T12:12:00;11.40;99.90
35381;DHT22;21486;51.916;8.378;2023-12-28T12:14:25;11.40;99.90
35381;DHT22;21486;51.916;8.378;2023-12-28T12:16:51;11.40;99.90
35381;DHT22;21486;51.916;8.378;2023-12-28T12:19:18;11.40;99.90
35381;DHT22;21486;51.916;8.378;2023-12-28T12:21:43;11.40;99.90
35381;DHT22;21486;51.916;8.378;2023-12-28T12:24:09;11.40;99.90
35381;DHT22;21486;51.916;8.378;2023-12-28T12:26:35;11.40;99.90
35381;DHT22;21486;51.916;8.378;2023-12-28T12:29:01;11.40;99.90
35381;DHT22;21486;51.916;8.378;2023-12-28T12:31:28;11.50;99.90
35381;DHT22;21486;51.916;8.378;2023-12-28T12:33:53;11.50;99.90
35381;DHT22;21486;51.916;8.378;2023-12-28T12:36:19;11.50;99.90
35381;DHT22;21486;51.916;8.378;2023-12-28T12:38:46;11.40;99.90
35381;DHT22;21486;51.916;8.378;2023-12-28T12:41:12;11.40;99.90
35381;DHT22;21486;51.916;8.378;2023-12-28T12:43:38;11.50;99.90
35381;DHT22;21486;51.916;8.378;2023-12-28T12:46:06;11.50;99.90
35381;DHT22;21486;51.916;8.378;2023-12-28T12:48:31;11.50;99.90
35381;DHT22;21486;51.916;8.378;2023-12-28T12:50:57;11.50;99.90
35381;DHT22;21486;51.916;8.378;2023-12-28T12:53:22;11.50;99.90
35381;DHT22;21486;51.916;8.378;2023-12-28T12:55:48;11.60;99.90
35381;DHT22;21486;51.916;8.378;2023-12-28T12:58:15;11.50;99.90
35381;DHT22;21486;51.916;8.378;2023-12-28T13:00:42;11.50;99.90
35381;DHT22;21486;51.916;8.378;2023-12-28T13:03:10;11.50;99.90
35381;DHT22;21486;51.916;8.378;2023-12-28T13:05:36;11.50;99.90
35381;DHT22;21486;51.916;8.378;2023-12-28T13:08:03;11.60;99.90
35381;DHT22;21486;51.916;8.378;2023-12-28T13:10:30;11.60;99.90
35381;DHT22;21486;51.916;8.378;2023-12-28T13:12:55;11.50;99.90
35381;DHT22;21486;51.916;8.378;2023-12-28T13:15:21;11.50;99.90
35381;DHT22;21486;51.916;8.378;2023-12-28T13:17:46;11.60;99.90
35381;DHT22;21486;51.916;8.378;2023-12-28T13:20:12;11.60;99.90
35381;DHT22;21486;51.916;8.378;2023-12-28T13:22:38;11.50;99.90
35381;DHT22;21486;51.916;8.378;2023-12-28T13:25:04;11.50;99.90
35381;DHT22;21486;51.916;8.378;2023-12-28T13:27:29;11.50;99.90
35381;DHT22;21486;51.916;8.378;2023-12-28T13:29:56;11.50;99.90
35381;DHT22;21486;51.916;8.378;2023-12-28T13:32:22;11.50;99.90
35381;DHT22;21486;51.916;8.378;2023-12-28T13:34:48;11.50;99.90
35381;DHT22;21486;51.916;8.378;2023-12-28T13:37:16;11.50;99.90
35381;DHT22;21486;51.916;8.378;2023-12-28T13:39:41;11.50;99.90
35381;DHT22;21486;51.916;8.378;2023-12-28T13:42:07;11.50;99.90
35381;DHT22;21486;51.916;8.378;2023-12-28T13:44:34;11.40;99.90
35381;DHT22;21486;51.916;8.378;2023-12-28T13:47:01;11.50;99.90
35381;DHT22;21486;51.916;8.378;2023-12-28T13:49:26;11.40;99.90
35381;DHT22;21486;51.916;8.378;2023-12-28T13:51:52;11.40;99.90
35381;DHT22;21486;51.916;8.378;2023-12-28T13:54:18;11.40;99.90
35381;DHT22;21486;51.916;8.378;2023-12-28T13:56:45;11.40;99.90
35381;DHT22;21486;51.916;8.378;2023-12-28T13:59:11;11.40;99.90
35381;DHT22;21486;51.916;8.378;2023-12-28T14:01:37;11.40;99.90
35381;DHT22;21486;51.916;8.378;2023-12-28T14:04:03;11.50;99.90
35381;DHT22;21486;51.916;8.378;2023-12-28T14:06:29;11.40;99.90
35381;DHT22;21486;51.916;8.378;2023-12-28T14:08:54;11.40;99.90
35381;DHT22;21486;51.916;8.378;2023-12-28T14:11:20;11.40;99.90
35381;DHT22;21486;51.916;8.378;2023-12-28T14:13:45;11.50;99.90
35381;DHT22;21486;51.916;8.378;2023-12-28T14:16:11;11.50;99.90
35381;DHT22;21486;51.916;8.378;2023-12-28T14:18:36;11.40;99.90
35381;DHT22;21486;51.916;8.378;2023-12-28T14:21:04;11.40;99.90
35381;DHT22;21486;51.916;8.378;2023-12-28T14:23:30;11.40;99.90
35381;DHT22;21486;51.916;8.378;2023-12-28T14:25:56;11.40;99.90
35381;DHT22;21486;51.916;8.378;2023-12-28T14:28:22;11.30;99.90
35381;DHT22;21486;51.916;8.378;2023-12-28T14:30:50;11.30;99.90
35381;DHT22;21486;51.916;8.378;2023-12-28T14:33:15;11.40;99.90
35381;DHT22;21486;51.916;8.378;2023-12-28T14:35:41;11.30;99.90
35381;DHT22;21486;51.916;8.378;2023-12-28T14:38:07;11.30;99.90
35381;DHT22;21486;51.916;8.378;2023-12-28T14:40:33;11.30;99.90
35381;DHT22;21486;51.916;8.378;2023-12-28T14:42:59;11.30;99.90
35381;DHT22;21486;51.916;8.378;2023-12-28T14:45:24;11.20;99.90
35381;DHT22;21486;51.916;8.378;2023-12-28T14:47:50;11.30;99.90
35381;DHT22;21486;51.916;8.378;2023-12-28T14:50:15;11.20;99.90
35381;DHT22;21486;51.916;8.378;2023-12-28T14:52:41;11.20;99.90
35381;DHT22;21486;51.916;8.378;2023-12-28T14:55:08;11.10;99.90
35381;DHT22;21486;51.916;8.378;2023-12-28T14:57:34;11.10;99.90
35381;DHT22;21486;51.916;8.378;2023-12-28T15:00:00;11.10;99.90
35381;DHT22;21486;51.916;8.378;2023-12-28T15:02:25;11.00;99.90
35381;DHT22;21486;51.916;8.378;2023-12-28T15:04:51;11.00;99.90
35381;DHT22;21486;51.916;8.378;2023-12-28T15:07:17;11.00;99.90
35381;DHT22;21486;51.916;8.378;2023-12-28T15:09:44;11.00;99.90
35381;DHT22;21486;51.916;8.378;2023-12-28T15:12:10;11.00;99.90
35381;DHT22;21486;51.916;8.378;2023-12-28T15:14:36;11.00;99.90
35381;DHT22;21486;51.916;8.378;2023-12-28T15:17:02;11.00;99.90
35381;DHT22;21486;51.916;8.378;2023-12-28T15:19:28;10.90;99.90
35381;DHT22;21486;51.916;8.378;2023-12-28T15:21:53;10.90;99.90
35381;DHT22;21486;51.916;8.378;2023-12-28T15:24:19;10.90;99.90
35381;DHT22;21486;51.916;8.378;2023-12-28T15:26:45;10.90;99.90
35381;DHT22;21486;51.916;8.378;2023-12-28T15:29:10;10.90;99.90
35381;DHT22;21486;51.916;8.378;2023-12-28T15:31:37;10.90;99.90
35381;DHT22;21486;51.916;8.378;2023-12-28T15:34:03;10.80;99.90
35381;DHT22;21486;51.916;8.378;2023-12-28T15:36:29;10.80;99.90